EDDVEDLP

Guest
Details From EDDV - Hannover
To EDLP - Paderborn Lippstadt
Flight Number -
Tags Generated
Created
Modified
Stats Distance 64 nm / 119 km
Max Altitude 0 ft / 0 m
Waypoints 2
Social Downloads 2
Likes 0
Share VATSIM

Download

Looking for another format? Having issues loading an existing format? Contact us
Advertisement - Login to hide

Notes

Generated

Route

EDDV EDLP

ID Type Via Altitude Latitude Longitude Leg Dist Tot Dist Heading (true) Name
O EDDV APT - 0 ft / 0 m 52.46820˚ 9.64854˚ - 0 nm - -
O EDLP APT - 0 ft / 0 m 51.60888˚ 8.60309˚ 64 nm 64 nm 217° / 216° -

Altitude Profile

Advertisement - Login to hide

EDDV

Details ICAO EDDV (HAJ)
Name Hannover
Region Germany - Civil
Timezone Europe/Berlin (UTC+2.0)
Stats Elevation 183 ft / 56 m (AMSL)
Location 52.462095° 9.686794°
Runways 3
Magnetic Variation 2.739° E

METAR

EDDV 201420Z 09010KT 060V140 CAVOK 22/03 Q1023 NOSIG

Decode

TAF

TAF EDDV 201100Z 2012/2112 09008KT CAVOK BECMG 2108/2110 09013KT TEMPO 2110/2112 10015G25KT

Decode

Departure Runways

ID Width Length Bearing (true) Bearing (mag) Surface Threshold Offset Overrun Length
09C 75 ft / 23 m 2,532 ft / 772 m 92.55° 89.81° Asphalt 213 ft / 65 m 0 ft / 0 m
09L 148 ft / 45 m 12,429 ft / 3,788 m 92.57° 89.83° Concrete 984 ft / 300 m 0 ft / 0 m
09R 148 ft / 45 m 7,653 ft / 2,333 m 92.60° 89.86° Concrete 0 ft / 0 m 0 ft / 0 m
27C 75 ft / 23 m 2,532 ft / 772 m 272.56° 269.82° Asphalt 541 ft / 165 m 0 ft / 0 m
27L 148 ft / 45 m 7,653 ft / 2,333 m 272.62° 269.88° Concrete 0 ft / 0 m 0 ft / 0 m
27R 148 ft / 45 m 12,429 ft / 3,788 m 272.61° 269.87° Concrete 984 ft / 300 m 0 ft / 0 m

EDLP

Details ICAO EDLP (PAD)
Name Paderborn Lippstadt
Region Germany - Civil
Timezone Europe/Berlin (UTC+2.0)
Stats Elevation 699 ft / 213 m (AMSL)
Location 51.614166° 8.616336°
Runways 1
Magnetic Variation 2.415° E

METAR

EDLP 201420Z 10009KT 050V130 CAVOK 23/06 Q1021

Decode

TAF

TAF EDLP 201100Z 2012/2112 08010KT CAVOK BECMG 2018/2020 09005KT BECMG 2105/2108 11011KT PROB30 TEMPO 2111/2112 10015G25KT

Decode

Destination Runways

ID Width Length Bearing (true) Bearing (mag) Surface Threshold Offset Overrun Length
06 148 ft / 45 m 7,136 ft / 2,175 m 57.28° 54.86° Asphalt 0 ft / 0 m 1,066 ft / 325 m
24 148 ft / 45 m 7,136 ft / 2,175 m 237.30° 234.88° Asphalt 0 ft / 0 m 397 ft / 121 m

Approach Navaids

Runway Type Ident Frequency Range Bearing (true) Bearing (mag) Slope Elevation
06 Localiser IPLE 111.70 MHz 18 nm / 33 km 57.13° 54.72° - 674 ft / 205 m (AMSL)
06 Glidescope IPLE 111.70 MHz 10 nm / 19 km 57.29° 54.87° 3.00° 699 ft / 213 m (AMSL)
24 Localiser IPLW 108.55 MHz 18 nm / 33 km 236.80° 234.38° - 699 ft / 213 m (AMSL)
24 Glidescope IPLW 108.55 MHz 10 nm / 19 km 237.29° 234.87° 3.00° 674 ft / 205 m (AMSL)

Popular Alternatives